Minneapolis, Minnesota
Traffic Map
Current Weather Conditions
Minneapolis, Minnesota
Overcast Moderate Fog
Overcast
35°
Feels Like: 27°
Wind Chill: 27° Ceiling: 200
Heat Index: 35° Visibility: 0.5mi
Dew Point: 34° Wind: 12mph
Humidity: 96% Direction: 130° (SE)
Pressure: 29.56in Gusts: 0mph
Raw Report DataKMSP 210053Z 13010KT 1/2SM R30L/2600V3000FT FG VV002 02/01 A2956 RMK AO2 SLP017 T00170011
Traffic Incident Summary
Active as of:
Severity:
Category:
InformationThere was an issue retrieving the traffic information for this location. Please try a different location or try again shortly.
Advertisements
Track Severe Weather on mobile